Time;durP1;ratioP1;P1;durP2;ratioP2;P2;SDS_P1;SDS_P2;PMS_P1;PMS_P2;Temp;Humidity;BMP_temperature;BMP_pressure;BME280_temperature;BME280_humidity;BME280_pressure;Samples;Min_cycle;Max_cycle;Signal;HPM_P1;HPM_P2
2022/10/30 00:01:35;;;;;;;21.57;18.80;;;;;;;;;;4918075;29;20494;-73
2022/10/30 00:04:26;;;;;;;21.17;19.10;;;;;;;;;;4913064;29;20484;-74
2022/10/30 00:07:23;;;;;;;23.23;20.77;;;;;;;;;;4912770;29;20491;-73
2022/10/30 00:10:19;;;;;;;21.30;19.00;;;;;;;;;;4913449;29;21136;-73
2022/10/30 00:13:11;;;;;;;22.27;19.70;;;;;;;;;;4914766;29;20477;-73
2022/10/30 00:16:00;;;;;;;23.63;19.40;;;;;;;;;;4916143;29;20468;-73
2022/10/30 00:18:51;;;;;;;22.80;19.60;;;;;;;;;;4920557;29;20917;-73
2022/10/30 00:21:41;;;;;;;20.93;18.83;;;;;;;;;;4919810;29;20519;-73
2022/10/30 00:24:38;;;;;;;20.73;18.40;;;;;;;;;;4918829;29;20465;-74
2022/10/30 00:27:29;;;;;;;20.17;18.07;;;;;;;;;;4916008;29;20462;-73
2022/10/30 00:30:21;;;;;;;20.03;18.10;;;;;;;;;;4918363;29;20485;-73
2022/10/30 00:33:11;;;;;;;20.47;18.47;;;;;;;;;;4912600;29;20528;-74
2022/10/30 00:36:05;;;;;;;20.10;17.60;;;;;;;;;;4913590;29;20483;-73
2022/10/30 00:38:57;;;;;;;19.37;17.47;;;;;;;;;;4921095;29;20457;-73
2022/10/30 00:41:52;;;;;;;18.93;17.00;;;;;;;;;;4919031;29;20492;-73
2022/10/30 00:44:43;;;;;;;19.80;17.70;;;;;;;;;;4919384;29;20456;-73
2022/10/30 00:47:34;;;;;;;22.07;18.73;;;;;;;;;;4920054;29;20460;-73
2022/10/30 00:50:27;;;;;;;17.73;15.90;;;;;;;;;;4911870;29;20472;-74
2022/10/30 00:53:19;;;;;;;17.67;15.90;;;;;;;;;;4921543;29;20668;-74
2022/10/30 00:56:10;;;;;;;19.83;17.80;;;;;;;;;;4917658;29;20460;-73
2022/10/30 00:59:06;;;;;;;18.37;16.53;;;;;;;;;;4919453;29;20452;-73
2022/10/30 01:01:59;;;;;;;17.37;15.43;;;;;;;;;;4921478;29;20489;-74
2022/10/30 01:04:49;;;;;;;21.93;17.23;;;;;;;;;;4916413;29;20950;-73
2022/10/30 01:07:37;;;;;;;17.50;15.67;;;;;;;;;;4919985;29;20452;-74
2022/10/30 01:10:26;;;;;;;17.47;15.70;;;;;;;;;;4918208;29;20501;-73
2022/10/30 01:13:18;;;;;;;18.13;16.27;;;;;;;;;;4921116;29;20966;-74
2022/10/30 01:16:20;;;;;;;17.83;16.10;;;;;;;;;;4918887;29;21007;-74
2022/10/30 01:19:19;;;;;;;20.47;18.37;;;;;;;;;;4919996;29;20474;-74
2022/10/30 01:22:19;;;;;;;18.37;16.27;;;;;;;;;;4922223;28;21511;-73
2022/10/30 01:25:21;;;;;;;22.07;17.40;;;;;;;;;;4919124;29;20531;-73
2022/10/30 01:28:21;;;;;;;17.77;15.87;;;;;;;;;;4921177;29;20464;-73
2022/10/30 01:31:20;;;;;;;17.60;15.77;;;;;;;;;;4915935;29;20495;-73
2022/10/30 01:34:19;;;;;;;19.60;16.03;;;;;;;;;;4919323;29;20510;-73
2022/10/30 01:37:10;;;;;;;21.73;17.20;;;;;;;;;;4917030;29;20521;-73
2022/10/30 01:40:06;;;;;;;19.57;16.83;;;;;;;;;;4914544;29;20556;-74
2022/10/30 01:43:14;;;;;;;18.93;16.80;;;;;;;;;;4911277;29;21425;-73
2022/10/30 01:46:15;;;;;;;17.63;15.60;;;;;;;;;;4902254;29;20473;-73
2022/10/30 01:49:23;;;;;;;16.47;14.77;;;;;;;;;;4898085;29;20459;-74
2022/10/30 01:52:17;;;;;;;18.37;16.23;;;;;;;;;;4906171;29;20575;-73
2022/10/30 01:55:12;;;;;;;21.37;15.67;;;;;;;;;;4898685;29;20567;-74
2022/10/30 01:58:03;;;;;;;17.40;15.37;;;;;;;;;;4905902;29;21329;-76
2022/10/30 02:00:54;;;;;;;16.70;14.90;;;;;;;;;;4911539;29;20579;-74
2022/10/30 02:03:44;;;;;;;20.37;15.67;;;;;;;;;;4906576;29;20456;-74
2022/10/30 02:06:38;;;;;;;17.77;15.90;;;;;;;;;;4912511;29;20454;-74
2022/10/30 02:09:30;;;;;;;20.70;16.37;;;;;;;;;;4911600;29;20452;-74
2022/10/30 02:12:30;;;;;;;17.87;16.07;;;;;;;;;;4913658;29;20481;-74
2022/10/30 02:15:27;;;;;;;18.03;16.20;;;;;;;;;;4918615;29;20555;-73
2022/10/30 02:18:18;;;;;;;17.60;15.90;;;;;;;;;;4923510;29;20457;-74
2022/10/30 02:21:11;;;;;;;18.17;15.90;;;;;;;;;;4919643;29;20493;-74
2022/10/30 02:24:08;;;;;;;17.17;15.47;;;;;;;;;;4921117;29;20546;-73
2022/10/30 02:26:57;;;;;;;19.80;17.60;;;;;;;;;;4921814;29;20469;-74
2022/10/30 02:29:48;;;;;;;17.00;15.30;;;;;;;;;;4920649;29;20448;-74
2022/10/30 02:32:40;;;;;;;18.57;16.57;;;;;;;;;;4921610;29;20839;-73
2022/10/30 02:35:34;;;;;;;17.70;15.83;;;;;;;;;;4912281;29;20480;-72
2022/10/30 02:38:27;;;;;;;20.50;16.80;;;;;;;;;;4905332;29;20503;-72
2022/10/30 02:41:19;;;;;;;17.23;15.53;;;;;;;;;;4911977;29;20618;-71
2022/10/30 02:44:11;;;;;;;17.30;15.17;;;;;;;;;;4911300;29;20461;-72
2022/10/30 02:47:00;;;;;;;17.03;15.23;;;;;;;;;;4898686;29;21848;-72
2022/10/30 02:49:48;;;;;;;18.73;16.07;;;;;;;;;;4905942;29;20467;-74
2022/10/30 02:52:37;;;;;;;17.13;15.20;;;;;;;;;;4914019;29;20792;-72
2022/10/30 02:55:31;;;;;;;16.60;14.70;;;;;;;;;;4923251;29;20488;-73
2022/10/30 02:58:21;;;;;;;17.70;15.90;;;;;;;;;;4916628;29;20460;-72
2022/10/30 03:01:11;;;;;;;17.17;15.23;;;;;;;;;;4905655;29;20495;-72
2022/10/30 03:03:59;;;;;;;16.93;15.20;;;;;;;;;;4909981;29;20568;-73
2022/10/30 03:06:48;;;;;;;16.50;14.80;;;;;;;;;;4906570;29;20464;-74
2022/10/30 03:09:42;;;;;;;15.73;14.07;;;;;;;;;;4908021;29;20567;-73
2022/10/30 03:12:33;;;;;;;14.60;13.20;;;;;;;;;;4904026;29;20577;-73
2022/10/30 03:15:25;;;;;;;16.30;14.60;;;;;;;;;;4909910;29;20476;-74
2022/10/30 03:18:26;;;;;;;16.00;14.40;;;;;;;;;;4903808;29;20464;-74
2022/10/30 03:21:15;;;;;;;17.03;13.60;;;;;;;;;;4908681;29;20484;-73
2022/10/30 03:24:05;;;;;;;19.83;15.30;;;;;;;;;;4918677;29;20954;-74
2022/10/30 03:26:55;;;;;;;15.60;14.10;;;;;;;;;;4923119;29;20461;-73
2022/10/30 03:29:48;;;;;;;15.70;14.10;;;;;;;;;;4920919;29;21039;-73
2022/10/30 03:32:37;;;;;;;15.60;13.80;;;;;;;;;;4904507;29;20465;-73
2022/10/30 03:35:25;;;;;;;16.47;14.73;;;;;;;;;;4903808;29;21031;-73
2022/10/30 03:38:17;;;;;;;15.20;13.53;;;;;;;;;;4906529;29;20476;-73
2022/10/30 03:41:08;;;;;;;16.10;14.47;;;;;;;;;;4918260;28;20481;-73
2022/10/30 03:44:01;;;;;;;14.93;13.43;;;;;;;;;;4917005;29;20784;-73
2022/10/30 03:46:54;;;;;;;14.63;13.13;;;;;;;;;;4891799;29;20488;-73
2022/10/30 03:49:45;;;;;;;13.50;12.10;;;;;;;;;;4892903;29;20544;-73
2022/10/30 03:52:34;;;;;;;15.70;14.10;;;;;;;;;;4896902;29;20491;-72
2022/10/30 03:55:28;;;;;;;15.03;12.60;;;;;;;;;;4917541;29;20947;-73
2022/10/30 03:58:17;;;;;;;15.10;13.53;;;;;;;;;;4908124;29;20456;-73
2022/10/30 04:01:08;;;;;;;15.27;13.77;;;;;;;;;;4905649;29;20500;-75
2022/10/30 04:04:02;;;;;;;15.00;13.50;;;;;;;;;;4901017;29;21038;-73
2022/10/30 04:06:51;;;;;;;15.07;13.73;;;;;;;;;;4910579;29;20465;-73
2022/10/30 04:09:42;;;;;;;15.97;14.33;;;;;;;;;;4915168;29;20464;-72
2022/10/30 04:12:34;;;;;;;15.50;14.00;;;;;;;;;;4915677;29;20485;-73
2022/10/30 04:15:22;;;;;;;20.67;13.63;;;;;;;;;;4911362;29;23046;-73
2022/10/30 04:18:17;;;;;;;14.83;12.93;;;;;;;;;;4916650;29;20457;-73
2022/10/30 04:21:07;;;;;;;15.10;13.53;;;;;;;;;;4915480;29;22279;-72
2022/10/30 04:23:57;;;;;;;14.73;13.33;;;;;;;;;;4920986;29;20456;-72
2022/10/30 04:26:48;;;;;;;16.93;13.80;;;;;;;;;;4913922;29;20964;-72
2022/10/30 04:29:40;;;;;;;14.93;13.43;;;;;;;;;;4919216;29;20449;-72
2022/10/30 04:32:30;;;;;;;14.80;13.37;;;;;;;;;;4906979;29;20489;-72
2022/10/30 04:35:20;;;;;;;15.23;13.53;;;;;;;;;;4905879;29;20488;-73
2022/10/30 04:38:11;;;;;;;14.90;13.40;;;;;;;;;;4914668;29;20469;-73
2022/10/30 04:41:01;;;;;;;15.40;13.27;;;;;;;;;;4905836;29;21789;-73
2022/10/30 04:43:50;;;;;;;14.60;13.10;;;;;;;;;;4917161;29;20512;-72
2022/10/30 04:46:38;;;;;;;14.80;13.17;;;;;;;;;;4902165;29;20468;-73
2022/10/30 04:49:32;;;;;;;14.53;13.13;;;;;;;;;;4915329;29;20526;-73
2022/10/30 04:52:20;;;;;;;16.50;13.47;;;;;;;;;;4907334;29;20810;-73
2022/10/30 04:55:25;;;;;;;13.20;11.90;;;;;;;;;;4915805;29;20480;-72
2022/10/30 04:58:14;;;;;;;15.80;14.20;;;;;;;;;;4908973;29;20456;-73
2022/10/30 05:01:03;;;;;;;18.50;14.73;;;;;;;;;;4898781;29;21262;-73
2022/10/30 05:03:57;;;;;;;15.07;13.57;;;;;;;;;;4904140;29;20583;-72
2022/10/30 05:06:46;;;;;;;15.63;13.03;;;;;;;;;;4906008;29;20547;-73
2022/10/30 05:09:35;;;;;;;14.47;12.97;;;;;;;;;;4916362;29;20479;-73
2022/10/30 05:12:25;;;;;;;13.90;12.50;;;;;;;;;;4907155;29;20948;-72
2022/10/30 05:15:16;;;;;;;13.70;12.40;;;;;;;;;;4901429;29;20551;-72
2022/10/30 05:18:05;;;;;;;14.40;12.90;;;;;;;;;;4910575;29;20469;-73
2022/10/30 05:20:59;;;;;;;14.00;12.60;;;;;;;;;;4910192;29;20924;-73
2022/10/30 05:23:51;;;;;;;13.57;12.27;;;;;;;;;;4904770;29;20503;-72
2022/10/30 05:26:45;;;;;;;14.37;13.03;;;;;;;;;;4907882;29;20452;-73
2022/10/30 05:29:37;;;;;;;15.07;13.53;;;;;;;;;;4917809;29;20510;-72
2022/10/30 05:32:25;;;;;;;15.07;13.57;;;;;;;;;;4902469;29;20485;-73
2022/10/30 05:35:16;;;;;;;14.60;13.13;;;;;;;;;;4907354;29;20487;-72
2022/10/30 05:38:11;;;;;;;14.53;13.23;;;;;;;;;;4912559;29;20508;-72
2022/10/30 05:41:01;;;;;;;14.63;12.90;;;;;;;;;;4902823;29;20635;-73
2022/10/30 05:44:01;;;;;;;15.73;12.43;;;;;;;;;;4912571;29;20530;-72
2022/10/30 05:46:52;;;;;;;13.93;12.47;;;;;;;;;;4899418;29;21769;-73
2022/10/30 05:49:43;;;;;;;14.67;13.20;;;;;;;;;;4897831;29;20465;-72
2022/10/30 05:52:34;;;;;;;13.03;11.73;;;;;;;;;;4907861;29;20538;-73
2022/10/30 05:55:24;;;;;;;13.43;12.00;;;;;;;;;;4901079;29;20507;-73
2022/10/30 05:58:12;;;;;;;14.13;12.67;;;;;;;;;;4907492;29;20576;-73
2022/10/30 06:01:05;;;;;;;13.10;11.80;;;;;;;;;;4918634;29;20484;-72
2022/10/30 06:03:55;;;;;;;13.47;12.03;;;;;;;;;;4901810;29;20472;-73
2022/10/30 06:06:44;;;;;;;13.73;12.30;;;;;;;;;;4902804;29;20652;-75
2022/10/30 06:09:32;;;;;;;13.03;11.70;;;;;;;;;;4918575;29;20450;-73
2022/10/30 06:12:21;;;;;;;13.43;12.07;;;;;;;;;;4914289;29;20481;-71
2022/10/30 06:15:10;;;;;;;13.80;12.40;;;;;;;;;;4914383;29;20467;-72
2022/10/30 06:17:58;;;;;;;14.17;12.30;;;;;;;;;;4911403;29;20456;-74
2022/10/30 06:20:49;;;;;;;12.90;11.70;;;;;;;;;;4910206;29;20929;-74
2022/10/30 06:23:37;;;;;;;13.50;12.20;;;;;;;;;;4912361;29;20492;-73
2022/10/30 06:26:26;;;;;;;12.70;11.10;;;;;;;;;;4909896;29;20465;-74
2022/10/30 06:29:14;;;;;;;13.77;12.43;;;;;;;;;;4909561;29;20583;-74
2022/10/30 06:32:03;;;;;;;13.77;12.37;;;;;;;;;;4901839;29;20495;-73
2022/10/30 06:34:54;;;;;;;13.50;12.17;;;;;;;;;;4907347;29;20460;-73
2022/10/30 06:37:47;;;;;;;12.80;11.60;;;;;;;;;;4912357;29;20985;-73
2022/10/30 06:40:35;;;;;;;11.87;10.77;;;;;;;;;;4909579;29;20485;-73
2022/10/30 06:43:24;;;;;;;12.87;11.57;;;;;;;;;;4901830;29;21165;-73
2022/10/30 06:46:12;;;;;;;16.60;13.13;;;;;;;;;;4895513;29;20519;-74
2022/10/30 06:49:01;;;;;;;14.10;12.60;;;;;;;;;;4911037;29;21025;-72
2022/10/30 06:51:51;;;;;;;12.13;11.00;;;;;;;;;;4911223;29;20551;-73
2022/10/30 06:54:43;;;;;;;12.87;11.57;;;;;;;;;;4901823;29;20453;-71
2022/10/30 06:57:32;;;;;;;16.03;12.97;;;;;;;;;;4905087;29;20526;-72
2022/10/30 07:00:20;;;;;;;14.07;12.77;;;;;;;;;;4902912;28;20488;-71
2022/10/30 07:03:09;;;;;;;14.30;12.80;;;;;;;;;;4903396;29;20550;-71
2022/10/30 07:05:57;;;;;;;13.47;12.10;;;;;;;;;;4905289;29;20468;-71
2022/10/30 07:08:47;;;;;;;15.17;12.30;;;;;;;;;;4912699;29;20905;-71
2022/10/30 07:11:39;;;;;;;14.00;12.57;;;;;;;;;;4911991;29;20598;-71
2022/10/30 07:14:27;;;;;;;12.70;11.50;;;;;;;;;;4913830;29;20950;-70
2022/10/30 07:17:16;;;;;;;13.97;12.23;;;;;;;;;;4900731;29;20473;-70
2022/10/30 07:20:04;;;;;;;12.53;11.10;;;;;;;;;;4907157;29;20487;-71
2022/10/30 07:22:53;;;;;;;13.70;12.30;;;;;;;;;;4909466;29;21260;-71
2022/10/30 07:25:41;;;;;;;13.50;12.10;;;;;;;;;;4914916;29;20487;-72
2022/10/30 07:28:31;;;;;;;14.40;12.90;;;;;;;;;;4912992;29;20483;-71
2022/10/30 07:31:20;;;;;;;13.43;12.07;;;;;;;;;;4909447;29;20943;-71
2022/10/30 07:34:28;;;;;;;15.73;11.90;;;;;;;;;;4913418;29;20456;-71
2022/10/30 07:37:17;;;;;;;12.80;11.50;;;;;;;;;;4923363;29;20480;-71
2022/10/30 07:40:06;;;;;;;13.57;12.20;;;;;;;;;;4921832;29;20486;-72
2022/10/30 07:43:00;;;;;;;14.03;12.63;;;;;;;;;;4910549;29;20464;-72
2022/10/30 07:45:52;;;;;;;13.70;12.20;;;;;;;;;;4897265;29;20563;-72
2022/10/30 07:48:41;;;;;;;12.60;11.30;;;;;;;;;;4902147;29;20519;-70
2022/10/30 07:51:29;;;;;;;12.57;11.50;;;;;;;;;;4907509;29;21629;-71
2022/10/30 07:54:18;;;;;;;12.60;11.40;;;;;;;;;;4908555;29;20464;-72
2022/10/30 07:57:06;;;;;;;13.80;12.30;;;;;;;;;;4907109;29;20476;-71
2022/10/30 07:59:55;;;;;;;16.23;12.83;;;;;;;;;;4898996;29;20475;-71
2022/10/30 08:02:51;;;;;;;11.97;10.83;;;;;;;;;;4906570;29;20503;-72
2022/10/30 08:05:40;;;;;;;13.33;12.03;;;;;;;;;;4912328;29;20453;-73
2022/10/30 08:08:28;;;;;;;14.37;13.07;;;;;;;;;;4918219;29;20464;-71
2022/10/30 08:11:17;;;;;;;15.47;13.87;;;;;;;;;;4906886;29;20503;-71
2022/10/30 08:14:07;;;;;;;15.63;14.07;;;;;;;;;;4907001;29;20831;-72
2022/10/30 08:16:56;;;;;;;15.47;13.90;;;;;;;;;;4907153;29;20485;-71
2022/10/30 08:19:46;;;;;;;14.63;13.23;;;;;;;;;;4907363;29;20519;-73
2022/10/30 08:22:34;;;;;;;15.43;13.80;;;;;;;;;;4911414;29;20469;-71
2022/10/30 08:25:24;;;;;;;14.77;13.27;;;;;;;;;;4912582;29;20461;-72
2022/10/30 08:28:13;;;;;;;13.40;12.10;;;;;;;;;;4911471;29;21012;-73
2022/10/30 08:31:02;;;;;;;13.50;12.10;;;;;;;;;;4910322;29;21055;-72
2022/10/30 08:33:50;;;;;;;17.43;13.60;;;;;;;;;;4896270;29;20460;-72
2022/10/30 08:36:40;;;;;;;13.87;12.40;;;;;;;;;;4898519;29;20489;-71
2022/10/30 08:39:34;;;;;;;14.20;12.80;;;;;;;;;;4912800;29;21212;-72
2022/10/30 08:42:22;;;;;;;14.77;12.73;;;;;;;;;;4902350;29;22094;-72
2022/10/30 08:45:11;;;;;;;15.03;13.53;;;;;;;;;;4909900;29;20472;-72
2022/10/30 08:48:02;;;;;;;15.53;13.07;;;;;;;;;;4908351;29;20452;-72
2022/10/30 08:50:50;;;;;;;15.07;13.00;;;;;;;;;;4906194;28;20480;-71
2022/10/30 08:53:40;;;;;;;18.07;14.10;;;;;;;;;;4903620;29;20858;-71
2022/10/30 08:56:29;;;;;;;15.23;13.60;;;;;;;;;;4916812;29;20465;-71
2022/10/30 08:59:17;;;;;;;16.17;12.37;;;;;;;;;;4905387;29;21235;-71
2022/10/30 09:02:08;;;;;;;14.73;12.93;;;;;;;;;;4907474;29;20480;-70
2022/10/30 09:04:57;;;;;;;16.57;12.97;;;;;;;;;;4917784;29;20954;-71
2022/10/30 09:07:46;;;;;;;20.27;13.87;;;;;;;;;;4907567;29;20464;-71
2022/10/30 09:10:36;;;;;;;20.13;12.83;;;;;;;;;;4903331;28;21017;-71
2022/10/30 09:13:25;;;;;;;20.20;13.90;;;;;;;;;;4903994;29;20596;-71
2022/10/30 09:16:13;;;;;;;14.17;12.77;;;;;;;;;;4912960;29;20484;-70
2022/10/30 09:19:02;;;;;;;14.37;12.87;;;;;;;;;;4907726;29;20489;-70
2022/10/30 09:21:53;;;;;;;15.40;13.27;;;;;;;;;;4903268;29;20488;-71
2022/10/30 09:24:41;;;;;;;15.33;12.40;;;;;;;;;;4909350;29;21162;-73
2022/10/30 09:27:31;;;;;;;14.70;11.80;;;;;;;;;;4907473;29;20589;-70
2022/10/30 09:30:20;;;;;;;15.30;13.70;;;;;;;;;;4907896;29;20511;-70
2022/10/30 09:33:09;;;;;;;17.37;12.70;;;;;;;;;;4900637;29;20469;-70
2022/10/30 09:35:58;;;;;;;15.73;13.37;;;;;;;;;;4901112;29;20468;-70
2022/10/30 09:38:46;;;;;;;18.53;13.30;;;;;;;;;;4897950;29;20496;-71
2022/10/30 09:41:47;;;;;;;14.37;12.00;;;;;;;;;;4898606;29;20547;-70
2022/10/30 09:44:45;;;;;;;15.03;12.90;;;;;;;;;;4901502;29;20866;-70
2022/10/30 09:48:00;;;;;;;14.30;12.33;;;;;;;;;;4898791;29;20452;-70
2022/10/30 09:50:54;;;;;;;13.73;12.30;;;;;;;;;;4894326;28;20590;-70
2022/10/30 09:53:48;;;;;;;16.97;12.13;;;;;;;;;;4912857;29;20973;-72
2022/10/30 09:56:40;;;;;;;13.53;12.10;;;;;;;;;;4906367;29;20607;-71
2022/10/30 09:59:35;;;;;;;17.43;12.93;;;;;;;;;;4913204;29;20496;-71
2022/10/30 10:02:31;;;;;;;18.70;13.10;;;;;;;;;;4911429;29;20488;-70
2022/10/30 10:05:22;;;;;;;17.80;12.30;;;;;;;;;;4910948;29;20456;-71
2022/10/30 10:08:15;;;;;;;12.87;11.27;;;;;;;;;;4905857;29;20456;-71
2022/10/30 10:11:06;;;;;;;16.53;12.23;;;;;;;;;;4903732;29;20495;-71
2022/10/30 10:13:58;;;;;;;13.60;11.20;;;;;;;;;;4912274;29;20530;-71
2022/10/30 10:16:52;;;;;;;17.20;11.73;;;;;;;;;;4907196;29;20449;-71
2022/10/30 10:19:47;;;;;;;13.80;11.70;;;;;;;;;;4904306;29;20600;-71
2022/10/30 10:22:39;;;;;;;13.27;10.97;;;;;;;;;;4906704;29;20491;-70
2022/10/30 10:25:29;;;;;;;15.30;12.40;;;;;;;;;;4906661;29;20519;-71
2022/10/30 10:28:24;;;;;;;16.83;11.93;;;;;;;;;;4902264;29;20480;-71
2022/10/30 10:31:19;;;;;;;14.77;11.37;;;;;;;;;;4898018;29;20494;-72
2022/10/30 10:34:18;;;;;;;14.57;12.37;;;;;;;;;;4905322;28;21320;-70
2022/10/30 10:37:12;;;;;;;13.23;10.57;;;;;;;;;;4903666;29;20479;-69
2022/10/30 10:40:23;;;;;;;17.20;12.10;;;;;;;;;;4912072;29;20461;-71
2022/10/30 10:43:19;;;;;;;16.20;11.90;;;;;;;;;;4905466;29;20464;-71
2022/10/30 10:46:16;;;;;;;13.33;11.13;;;;;;;;;;4913210;29;20468;-71
2022/10/30 10:49:15;;;;;;;15.10;12.53;;;;;;;;;;4912730;29;20853;-71
2022/10/30 10:52:07;;;;;;;13.47;11.10;;;;;;;;;;4910772;29;20893;-71
2022/10/30 10:55:01;;;;;;;13.47;11.07;;;;;;;;;;4912762;29;20457;-71
2022/10/30 10:57:52;;;;;;;14.23;11.50;;;;;;;;;;4909982;29;20624;-71
2022/10/30 11:00:41;;;;;;;12.87;10.23;;;;;;;;;;4913428;29;20507;-71
2022/10/30 11:03:34;;;;;;;13.43;11.03;;;;;;;;;;4914324;28;20468;-71
2022/10/30 11:06:25;;;;;;;13.63;10.97;;;;;;;;;;4906841;29;20452;-71
2022/10/30 11:09:15;;;;;;;13.60;10.23;;;;;;;;;;4913358;29;20462;-71
2022/10/30 11:12:07;;;;;;;13.37;11.17;;;;;;;;;;4910800;28;20562;-71
2022/10/30 11:14:56;;;;;;;10.77;9.27;;;;;;;;;;4904874;29;21213;-71
2022/10/30 11:17:55;;;;;;;11.50;9.53;;;;;;;;;;4905871;29;20460;-71
2022/10/30 11:20:47;;;;;;;16.50;10.00;;;;;;;;;;4909499;29;20558;-71
2022/10/30 11:23:41;;;;;;;13.60;9.63;;;;;;;;;;4917603;29;20463;-71
2022/10/30 11:26:32;;;;;;;12.33;8.87;;;;;;;;;;4920883;28;20468;-72
2022/10/30 11:29:23;;;;;;;10.77;8.10;;;;;;;;;;4914021;29;20467;-72
2022/10/30 11:32:18;;;;;;;9.83;8.57;;;;;;;;;;4904821;29;20522;-72
2022/10/30 11:35:12;;;;;;;13.63;8.93;;;;;;;;;;4911182;29;20464;-73
2022/10/30 11:38:13;;;;;;;12.00;8.40;;;;;;;;;;4922057;29;20973;-72
2022/10/30 11:41:02;;;;;;;12.30;7.97;;;;;;;;;;4907861;29;20484;-72
2022/10/30 11:43:51;;;;;;;14.53;8.30;;;;;;;;;;4908586;29;20464;-73
2022/10/30 11:46:40;;;;;;;10.10;6.90;;;;;;;;;;4901431;29;20454;-73
2022/10/30 11:49:35;;;;;;;9.23;7.03;;;;;;;;;;4893082;29;20566;-73
2022/10/30 11:52:25;;;;;;;9.07;7.10;;;;;;;;;;4916699;29;21068;-73
2022/10/30 11:55:17;;;;;;;9.53;7.00;;;;;;;;;;4920189;29;20462;-73
2022/10/30 11:58:08;;;;;;;7.40;6.70;;;;;;;;;;4910542;29;20318;-74
2022/10/30 12:01:01;;;;;;;10.23;7.35;;;;;;;;;;4912739;29;20236;-74
2022/10/30 12:03:51;;;;;;;10.93;7.40;;;;;;;;;;4911740;28;20208;-73
2022/10/30 12:06:40;;;;;;;8.02;6.95;;;;;;;;;;4909353;29;20290;-73
2022/10/30 12:09:31;;;;;;;11.60;6.47;;;;;;;;;;4910954;29;20276;-73
2022/10/30 12:12:22;;;;;;;7.85;7.05;;;;;;;;;;4907307;29;20660;-73
2022/10/30 12:15:18;;;;;;;7.70;6.53;;;;;;;;;;4912445;29;20364;-72
2022/10/30 12:18:07;;;;;;;9.52;6.80;;;;;;;;;;4909739;29;20208;-73
2022/10/30 12:20:58;;;;;;;7.75;5.97;;;;;;;;;;4905585;29;20323;-73
2022/10/30 12:23:51;;;;;;;7.65;6.72;;;;;;;;;;4910820;29;20204;-73
2022/10/30 12:26:40;;;;;;;10.75;6.40;;;;;;;;;;4905835;29;20212;-73
2022/10/30 12:29:38;;;;;;;9.00;6.32;;;;;;;;;;4909921;29;20298;-73
2022/10/30 12:32:50;;;;;;;6.78;6.15;;;;;;;;;;4910308;29;22299;-73
2022/10/30 12:35:41;;;;;;;9.07;6.95;;;;;;;;;;4914858;28;20951;-72
2022/10/30 12:38:33;;;;;;;6.53;5.82;;;;;;;;;;4913871;29;20199;-73
2022/10/30 12:41:24;;;;;;;8.32;6.00;;;;;;;;;;4914974;29;20235;-73
2022/10/30 12:44:14;;;;;;;10.50;6.78;;;;;;;;;;4909034;29;20266;-72
2022/10/30 12:47:06;;;;;;;8.00;6.03;;;;;;;;;;4905153;29;20263;-72
2022/10/30 12:49:58;;;;;;;8.57;6.40;;;;;;;;;;4910169;29;20196;-72
2022/10/30 12:52:49;;;;;;;7.93;6.13;;;;;;;;;;4908013;29;20692;-73
2022/10/30 12:55:40;;;;;;;9.57;6.50;;;;;;;;;;4913191;29;20215;-73
2022/10/30 12:58:33;;;;;;;8.33;7.43;;;;;;;;;;4914997;29;20588;-73
2022/10/30 13:01:26;;;;;;;13.40;7.57;;;;;;;;;;4909481;29;20503;-72
2022/10/30 13:04:18;;;;;;;8.13;7.17;;;;;;;;;;4902688;29;21630;-71
2022/10/30 13:07:13;;;;;;;8.63;7.23;;;;;;;;;;4908196;29;21013;-72
2022/10/30 13:10:07;;;;;;;8.33;6.23;;;;;;;;;;4905006;29;20539;-74
2022/10/30 13:13:00;;;;;;;9.37;6.73;;;;;;;;;;4917304;29;20567;-72
2022/10/30 13:15:50;;;;;;;8.80;7.27;;;;;;;;;;4916445;29;20551;-73
2022/10/30 13:18:39;;;;;;;8.27;6.43;;;;;;;;;;4917508;29;20464;-73
2022/10/30 13:21:32;;;;;;;10.37;7.30;;;;;;;;;;4905028;29;20485;-73
2022/10/30 13:24:26;;;;;;;8.00;6.40;;;;;;;;;;4915261;29;20476;-74
2022/10/30 13:27:17;;;;;;;10.53;7.60;;;;;;;;;;4922251;29;20464;-74
2022/10/30 13:30:11;;;;;;;8.40;7.50;;;;;;;;;;4918176;29;21009;-74
2022/10/30 13:33:05;;;;;;;8.47;7.57;;;;;;;;;;4916485;29;20448;-73
2022/10/30 13:35:57;;;;;;;9.10;8.13;;;;;;;;;;4909663;29;20452;-73
2022/10/30 13:38:49;;;;;;;10.87;8.47;;;;;;;;;;4906949;29;20449;-73
2022/10/30 13:41:42;;;;;;;11.20;7.53;;;;;;;;;;4915587;29;20489;-72
2022/10/30 13:44:34;;;;;;;11.33;7.83;;;;;;;;;;4919511;29;20457;-72
2022/10/30 13:47:31;;;;;;;11.00;8.27;;;;;;;;;;4902364;29;20460;-73
2022/10/30 13:50:27;;;;;;;11.43;8.37;;;;;;;;;;4907547;29;20604;-71
2022/10/30 13:53:17;;;;;;;13.93;9.00;;;;;;;;;;4905736;29;21128;-72
2022/10/30 13:56:07;;;;;;;11.90;8.13;;;;;;;;;;4902230;29;20560;-73
2022/10/30 13:59:03;;;;;;;11.07;8.97;;;;;;;;;;4904198;29;20460;-73
2022/10/30 14:01:57;;;;;;;11.20;7.73;;;;;;;;;;4906218;29;20497;-74
2022/10/30 14:04:54;;;;;;;9.67;7.53;;;;;;;;;;4892675;29;20474;-72
2022/10/30 14:07:46;;;;;;;13.87;8.40;;;;;;;;;;4899756;29;20540;-73
2022/10/30 14:10:44;;;;;;;12.37;7.50;;;;;;;;;;4894169;29;20512;-72
2022/10/30 14:13:45;;;;;;;13.60;8.23;;;;;;;;;;4900778;29;20471;-73
2022/10/30 14:16:35;;;;;;;9.03;7.70;;;;;;;;;;4898621;29;20460;-72
2022/10/30 14:19:24;;;;;;;11.97;8.70;;;;;;;;;;4915989;29;20452;-73
2022/10/30 14:22:23;;;;;;;13.33;8.40;;;;;;;;;;4895994;29;20507;-72
2022/10/30 14:25:15;;;;;;;11.67;9.10;;;;;;;;;;4916190;29;20527;-72
2022/10/30 14:28:04;;;;;;;12.30;8.60;;;;;;;;;;4911700;29;20472;-72
2022/10/30 14:31:02;;;;;;;10.60;7.43;;;;;;;;;;4910892;29;20980;-73
2022/10/30 14:33:51;;;;;;;12.00;9.23;;;;;;;;;;4908813;29;20547;-72
2022/10/30 14:36:49;;;;;;;14.13;8.20;;;;;;;;;;4910839;29;20464;-72
2022/10/30 14:39:43;;;;;;;10.83;8.17;;;;;;;;;;4901922;29;20476;-72
2022/10/30 14:42:35;;;;;;;12.33;8.10;;;;;;;;;;4912057;29;20485;-71
2022/10/30 14:45:26;;;;;;;14.23;8.93;;;;;;;;;;4910696;29;20465;-71
2022/10/30 14:48:17;;;;;;;9.70;8.70;;;;;;;;;;4908586;29;20470;-71
2022/10/30 14:51:12;;;;;;;10.93;8.70;;;;;;;;;;4910876;29;20476;-71
2022/10/30 14:54:02;;;;;;;13.73;8.17;;;;;;;;;;4914622;29;20931;-71
2022/10/30 14:56:52;;;;;;;9.50;8.20;;;;;;;;;;4918404;29;20463;-73
2022/10/30 14:59:41;;;;;;;11.30;8.40;;;;;;;;;;4911836;29;20548;-72
2022/10/30 15:02:37;;;;;;;10.10;8.90;;;;;;;;;;4914794;29;20484;-72
2022/10/30 15:05:37;;;;;;;11.53;8.20;;;;;;;;;;4916783;29;20488;-73
2022/10/30 15:08:41;;;;;;;9.13;8.03;;;;;;;;;;4915777;29;20449;-73
2022/10/30 15:11:41;;;;;;;10.60;7.80;;;;;;;;;;4915391;29;20510;-74
2022/10/30 15:14:33;;;;;;;11.23;7.27;;;;;;;;;;4918603;29;20458;-73
2022/10/30 15:17:42;;;;;;;10.67;8.60;;;;;;;;;;4911956;29;20453;-73
2022/10/30 15:20:31;;;;;;;12.00;8.37;;;;;;;;;;4917716;29;20480;-73
2022/10/30 15:23:23;;;;;;;10.37;8.40;;;;;;;;;;4917955;29;21063;-73
2022/10/30 15:26:20;;;;;;;9.80;8.80;;;;;;;;;;4917052;29;20456;-73
2022/10/30 15:29:16;;;;;;;9.90;8.63;;;;;;;;;;4917493;29;20449;-73
2022/10/30 15:32:15;;;;;;;11.67;9.37;;;;;;;;;;4920752;29;20509;-72
2022/10/30 15:35:05;;;;;;;9.87;8.60;;;;;;;;;;4915330;29;20476;-71
2022/10/30 15:37:57;;;;;;;10.10;9.00;;;;;;;;;;4913851;29;20845;-72
2022/10/30 15:40:46;;;;;;;9.20;8.40;;;;;;;;;;4915370;29;20484;-72
2022/10/30 15:43:36;;;;;;;10.10;8.33;;;;;;;;;;4920149;29;20483;-71
2022/10/30 15:46:24;;;;;;;10.10;8.60;;;;;;;;;;4915683;29;20456;-74
2022/10/30 15:49:17;;;;;;;11.20;8.47;;;;;;;;;;4916241;29;20476;-73
2022/10/30 15:52:12;;;;;;;12.03;8.30;;;;;;;;;;4909931;29;20476;-72
2022/10/30 15:55:02;;;;;;;10.63;9.03;;;;;;;;;;4905411;29;21759;-72
2022/10/30 15:57:52;;;;;;;10.73;9.63;;;;;;;;;;4912223;29;20552;-72
2022/10/30 16:00:56;;;;;;;10.83;8.77;;;;;;;;;;4914088;29;20477;-71
2022/10/30 16:03:51;;;;;;;11.50;9.43;;;;;;;;;;4919242;29;20608;-70
2022/10/30 16:06:47;;;;;;;12.33;9.20;;;;;;;;;;4916625;29;20448;-71
2022/10/30 16:09:36;;;;;;;12.00;9.50;;;;;;;;;;4914103;29;20456;-73
2022/10/30 16:12:25;;;;;;;11.53;10.07;;;;;;;;;;4915399;29;22400;-72
2022/10/30 16:15:21;;;;;;;12.13;10.33;;;;;;;;;;4915189;29;20507;-72
2022/10/30 16:18:15;;;;;;;18.17;11.00;;;;;;;;;;4923588;29;20459;-72
2022/10/30 16:21:06;;;;;;;11.10;9.93;;;;;;;;;;4880800;29;1059810;-72
2022/10/30 16:23:57;;;;;;;12.00;9.80;;;;;;;;;;4919846;29;20483;-71
2022/10/30 16:26:45;;;;;;;11.67;10.40;;;;;;;;;;4917262;29;20480;-74
2022/10/30 16:29:35;;;;;;;12.17;9.40;;;;;;;;;;4921546;29;20920;-72
2022/10/30 16:32:25;;;;;;;12.60;11.30;;;;;;;;;;4910717;29;20583;-72
2022/10/30 16:35:13;;;;;;;12.03;10.20;;;;;;;;;;4913279;29;20472;-71
2022/10/30 16:38:03;;;;;;;11.33;10.10;;;;;;;;;;4913188;29;20461;-71
2022/10/30 16:40:53;;;;;;;11.83;10.67;;;;;;;;;;4918804;29;20762;-71
2022/10/30 16:43:43;;;;;;;14.60;11.43;;;;;;;;;;4915479;29;20453;-72
2022/10/30 16:46:34;;;;;;;11.83;10.57;;;;;;;;;;4913157;29;21040;-71